sensor_id;sensor_type;location;lat;lon;timestamp;temperature;humidity
36548;DHT22;22551;52.206;4.856;2022-07-23T00:01:12;15.20;99.90
36548;DHT22;22551;52.206;4.856;2022-07-23T00:06:14;15.20;99.90
36548;DHT22;22551;52.206;4.856;2022-07-23T00:11:18;15.10;99.90
36548;DHT22;22551;52.206;4.856;2022-07-23T00:16:22;15.00;99.90
36548;DHT22;22551;52.206;4.856;2022-07-23T00:21:24;15.00;99.90
36548;DHT22;22551;52.206;4.856;2022-07-23T00:26:28;15.00;99.90
36548;DHT22;22551;52.206;4.856;2022-07-23T00:31:30;14.90;99.90
36548;DHT22;22551;52.206;4.856;2022-07-23T00:36:32;14.90;99.90
36548;DHT22;22551;52.206;4.856;2022-07-23T00:41:36;14.70;99.90
36548;DHT22;22551;52.206;4.856;2022-07-23T00:46:38;14.80;99.90
36548;DHT22;22551;52.206;4.856;2022-07-23T00:51:40;14.70;99.90
36548;DHT22;22551;52.206;4.856;2022-07-23T00:56:45;14.60;99.90
36548;DHT22;22551;52.206;4.856;2022-07-23T01:01:48;14.50;99.90
36548;DHT22;22551;52.206;4.856;2022-07-23T01:06:50;14.60;99.90
36548;DHT22;22551;52.206;4.856;2022-07-23T01:11:54;14.60;99.90
36548;DHT22;22551;52.206;4.856;2022-07-23T01:16:57;14.60;99.90
36548;DHT22;22551;52.206;4.856;2022-07-23T01:22:02;14.60;99.90
36548;DHT22;22551;52.206;4.856;2022-07-23T01:27:06;14.60;99.90
36548;DHT22;22551;52.206;4.856;2022-07-23T01:32:08;14.60;99.90
36548;DHT22;22551;52.206;4.856;2022-07-23T01:37:10;14.60;99.90
36548;DHT22;22551;52.206;4.856;2022-07-23T01:42:14;14.50;99.90
36548;DHT22;22551;52.206;4.856;2022-07-23T01:47:16;14.50;99.90
36548;DHT22;22551;52.206;4.856;2022-07-23T01:52:18;14.50;99.90
36548;DHT22;22551;52.206;4.856;2022-07-23T01:57:22;14.40;99.90
36548;DHT22;22551;52.206;4.856;2022-07-23T02:02:24;14.40;99.90
36548;DHT22;22551;52.206;4.856;2022-07-23T02:07:27;14.40;99.90
36548;DHT22;22551;52.206;4.856;2022-07-23T02:12:30;14.30;99.90
36548;DHT22;22551;52.206;4.856;2022-07-23T02:17:32;14.30;99.90
36548;DHT22;22551;52.206;4.856;2022-07-23T02:22:35;14.20;99.90
36548;DHT22;22551;52.206;4.856;2022-07-23T02:27:38;14.20;99.90
36548;DHT22;22551;52.206;4.856;2022-07-23T02:32:40;14.10;99.90
36548;DHT22;22551;52.206;4.856;2022-07-23T02:37:42;14.00;99.90
36548;DHT22;22551;52.206;4.856;2022-07-23T02:42:46;14.00;99.90
36548;DHT22;22551;52.206;4.856;2022-07-23T02:47:48;14.00;99.90
36548;DHT22;22551;52.206;4.856;2022-07-23T02:52:50;14.00;99.90
36548;DHT22;22551;52.206;4.856;2022-07-23T02:57:54;13.90;99.90
36548;DHT22;22551;52.206;4.856;2022-07-23T03:02:56;13.90;99.90
36548;DHT22;22551;52.206;4.856;2022-07-23T03:07:58;13.90;99.90
36548;DHT22;22551;52.206;4.856;2022-07-23T03:13:02;13.90;99.90
36548;DHT22;22551;52.206;4.856;2022-07-23T03:18:04;14.00;99.90
36548;DHT22;22551;52.206;4.856;2022-07-23T03:23:06;14.00;99.90
36548;DHT22;22551;52.206;4.856;2022-07-23T03:28:10;14.10;99.90
36548;DHT22;22551;52.206;4.856;2022-07-23T03:33:12;14.00;99.90
36548;DHT22;22551;52.206;4.856;2022-07-23T03:38:15;14.10;99.90
36548;DHT22;22551;52.206;4.856;2022-07-23T03:43:19;14.10;99.90
36548;DHT22;22551;52.206;4.856;2022-07-23T03:48:21;14.10;99.90
36548;DHT22;22551;52.206;4.856;2022-07-23T03:53:23;14.20;99.90
36548;DHT22;22551;52.206;4.856;2022-07-23T03:58:27;14.10;99.90
36548;DHT22;22551;52.206;4.856;2022-07-23T04:03:29;14.10;99.90
36548;DHT22;22551;52.206;4.856;2022-07-23T04:08:31;14.20;99.90
36548;DHT22;22551;52.206;4.856;2022-07-23T04:13:34;14.20;99.90
36548;DHT22;22551;52.206;4.856;2022-07-23T04:18:37;14.30;99.90
36548;DHT22;22551;52.206;4.856;2022-07-23T04:23:39;14.20;99.90
36548;DHT22;22551;52.206;4.856;2022-07-23T04:28:42;14.30;99.90
36548;DHT22;22551;52.206;4.856;2022-07-23T04:33:45;14.40;99.90
36548;DHT22;22551;52.206;4.856;2022-07-23T04:38:47;14.50;99.90
36548;DHT22;22551;52.206;4.856;2022-07-23T04:43:50;14.60;99.90
36548;DHT22;22551;52.206;4.856;2022-07-23T04:48:53;14.50;99.90
36548;DHT22;22551;52.206;4.856;2022-07-23T04:53:56;14.70;99.90
36548;DHT22;22551;52.206;4.856;2022-07-23T04:58:59;15.00;99.90
36548;DHT22;22551;52.206;4.856;2022-07-23T05:04:02;15.00;99.90
36548;DHT22;22551;52.206;4.856;2022-07-23T05:09:04;15.20;99.90
36548;DHT22;22551;52.206;4.856;2022-07-23T05:14:07;15.20;99.90
36548;DHT22;22551;52.206;4.856;2022-07-23T05:19:10;15.40;99.90
36548;DHT22;22551;52.206;4.856;2022-07-23T05:24:12;15.40;99.90
36548;DHT22;22551;52.206;4.856;2022-07-23T05:29:15;15.50;99.90
36548;DHT22;22551;52.206;4.856;2022-07-23T05:34:17;15.50;99.90
36548;DHT22;22551;52.206;4.856;2022-07-23T05:39:20;15.80;99.90
36548;DHT22;22551;52.206;4.856;2022-07-23T05:44:23;15.90;99.90
36548;DHT22;22551;52.206;4.856;2022-07-23T05:49:27;16.00;99.90
36548;DHT22;22551;52.206;4.856;2022-07-23T05:54:30;16.50;99.90
36548;DHT22;22551;52.206;4.856;2022-07-23T05:59:33;16.80;99.90
36548;DHT22;22551;52.206;4.856;2022-07-23T06:04:36;16.80;99.90
36548;DHT22;22551;52.206;4.856;2022-07-23T06:09:38;16.60;99.90
36548;DHT22;22551;52.206;4.856;2022-07-23T06:14:41;16.80;99.90
36548;DHT22;22551;52.206;4.856;2022-07-23T06:19:44;17.40;99.90
36548;DHT22;22551;52.206;4.856;2022-07-23T06:24:46;17.40;99.90
36548;DHT22;22551;52.206;4.856;2022-07-23T06:29:50;17.50;99.90
36548;DHT22;22551;52.206;4.856;2022-07-23T06:34:52;17.70;99.90
36548;DHT22;22551;52.206;4.856;2022-07-23T06:39:55;17.30;99.90
36548;DHT22;22551;52.206;4.856;2022-07-23T06:44:58;17.90;99.90
36548;DHT22;22551;52.206;4.856;2022-07-23T06:50:01;17.80;99.90
36548;DHT22;22551;52.206;4.856;2022-07-23T06:55:04;17.90;99.90
36548;DHT22;22551;52.206;4.856;2022-07-23T07:00:10;18.00;99.90
36548;DHT22;22551;52.206;4.856;2022-07-23T07:05:12;18.30;99.90
36548;DHT22;22551;52.206;4.856;2022-07-23T07:10:15;18.20;99.90
36548;DHT22;22551;52.206;4.856;2022-07-23T07:15:20;18.40;99.90
36548;DHT22;22551;52.206;4.856;2022-07-23T07:20:22;18.70;99.90
36548;DHT22;22551;52.206;4.856;2022-07-23T07:25:25;18.60;99.90
36548;DHT22;22551;52.206;4.856;2022-07-23T07:30:29;18.60;99.90
36548;DHT22;22551;52.206;4.856;2022-07-23T07:35:31;18.50;99.90
36548;DHT22;22551;52.206;4.856;2022-07-23T07:40:34;19.20;99.90
36548;DHT22;22551;52.206;4.856;2022-07-23T07:45:37;18.70;99.90
36548;DHT22;22551;52.206;4.856;2022-07-23T07:50:40;18.80;99.90
36548;DHT22;22551;52.206;4.856;2022-07-23T07:55:42;19.80;99.90
36548;DHT22;22551;52.206;4.856;2022-07-23T08:00:46;20.90;99.90
36548;DHT22;22551;52.206;4.856;2022-07-23T08:05:48;20.70;99.90
36548;DHT22;22551;52.206;4.856;2022-07-23T08:10:51;20.80;99.90
36548;DHT22;22551;52.206;4.856;2022-07-23T08:15:54;21.40;99.90
36548;DHT22;22551;52.206;4.856;2022-07-23T08:20:56;21.10;99.90
36548;DHT22;22551;52.206;4.856;2022-07-23T08:25:59;20.80;99.90
36548;DHT22;22551;52.206;4.856;2022-07-23T08:31:03;22.20;99.90
36548;DHT22;22551;52.206;4.856;2022-07-23T08:36:06;22.10;99.90
36548;DHT22;22551;52.206;4.856;2022-07-23T08:41:09;21.10;99.90
36548;DHT22;22551;52.206;4.856;2022-07-23T08:46:14;21.30;99.90
36548;DHT22;22551;52.206;4.856;2022-07-23T08:51:16;23.00;99.90
36548;DHT22;22551;52.206;4.856;2022-07-23T08:56:19;23.10;99.90
36548;DHT22;22551;52.206;4.856;2022-07-23T09:01:22;24.30;99.90
36548;DHT22;22551;52.206;4.856;2022-07-23T09:06:24;23.10;99.90
36548;DHT22;22551;52.206;4.856;2022-07-23T09:11:26;23.20;99.90
36548;DHT22;22551;52.206;4.856;2022-07-23T09:16:31;22.80;99.90
36548;DHT22;22551;52.206;4.856;2022-07-23T09:21:34;22.50;99.90
36548;DHT22;22551;52.206;4.856;2022-07-23T09:26:38;24.60;99.90
36548;DHT22;22551;52.206;4.856;2022-07-23T09:31:48;24.50;99.90
36548;DHT22;22551;52.206;4.856;2022-07-23T09:36:53;24.20;99.90
36548;DHT22;22551;52.206;4.856;2022-07-23T09:41:57;24.30;99.90
36548;DHT22;22551;52.206;4.856;2022-07-23T09:47:01;25.10;99.70
36548;DHT22;22551;52.206;4.856;2022-07-23T09:52:05;24.40;99.90
36548;DHT22;22551;52.206;4.856;2022-07-23T09:57:08;25.30;99.90
36548;DHT22;22551;52.206;4.856;2022-07-23T10:02:17;25.00;99.10
36548;DHT22;22551;52.206;4.856;2022-07-23T10:07:21;23.20;99.90
36548;DHT22;22551;52.206;4.856;2022-07-23T10:12:26;25.30;99.50
36548;DHT22;22551;52.206;4.856;2022-07-23T10:17:48;24.90;99.90
36548;DHT22;22551;52.206;4.856;2022-07-23T10:22:59;24.80;99.10
36548;DHT22;22551;52.206;4.856;2022-07-23T10:28:29;23.70;99.90
36548;DHT22;22551;52.206;4.856;2022-07-23T10:33:48;24.10;99.90
36548;DHT22;22551;52.206;4.856;2022-07-23T10:38:58;25.80;98.90
36548;DHT22;22551;52.206;4.856;2022-07-23T10:44:07;25.90;99.90
36548;DHT22;22551;52.206;4.856;2022-07-23T10:49:27;26.20;99.90
36548;DHT22;22551;52.206;4.856;2022-07-23T10:54:31;26.50;99.20
36548;DHT22;22551;52.206;4.856;2022-07-23T11:05:20;25.60;98.50
36548;DHT22;22551;52.206;4.856;2022-07-23T11:10:34;25.50;98.80
36548;DHT22;22551;52.206;4.856;2022-07-23T11:16:04;27.00;99.30
36548;DHT22;22551;52.206;4.856;2022-07-23T11:21:51;24.20;99.90
36548;DHT22;22551;52.206;4.856;2022-07-23T11:27:01;24.80;99.90
36548;DHT22;22551;52.206;4.856;2022-07-23T11:32:06;26.60;98.00
36548;DHT22;22551;52.206;4.856;2022-07-23T11:37:26;24.00;99.90
36548;DHT22;22551;52.206;4.856;2022-07-23T11:42:30;25.70;99.30
36548;DHT22;22551;52.206;4.856;2022-07-23T11:47:32;26.90;98.00
36548;DHT22;22551;52.206;4.856;2022-07-23T11:52:36;28.00;98.20
36548;DHT22;22551;52.206;4.856;2022-07-23T11:57:39;28.30;97.90
36548;DHT22;22551;52.206;4.856;2022-07-23T12:02:43;28.70;97.70
36548;DHT22;22551;52.206;4.856;2022-07-23T12:07:49;28.60;97.70
36548;DHT22;22551;52.206;4.856;2022-07-23T12:12:53;27.60;98.50
36548;DHT22;22551;52.206;4.856;2022-07-23T12:17:57;28.10;97.10
36548;DHT22;22551;52.206;4.856;2022-07-23T12:23:04;25.90;99.20
36548;DHT22;22551;52.206;4.856;2022-07-23T12:28:10;25.90;98.30
36548;DHT22;22551;52.206;4.856;2022-07-23T12:33:15;27.00;98.90
36548;DHT22;22551;52.206;4.856;2022-07-23T12:38:25;27.50;98.10
36548;DHT22;22551;52.206;4.856;2022-07-23T12:43:31;27.40;98.30
36548;DHT22;22551;52.206;4.856;2022-07-23T12:48:35;27.50;97.70
36548;DHT22;22551;52.206;4.856;2022-07-23T12:53:42;28.10;97.30
36548;DHT22;22551;52.206;4.856;2022-07-23T12:58:46;28.30;97.50
36548;DHT22;22551;52.206;4.856;2022-07-23T13:03:56;28.50;97.10
36548;DHT22;22551;52.206;4.856;2022-07-23T13:09:02;29.10;96.50
36548;DHT22;22551;52.206;4.856;2022-07-23T13:14:05;29.40;96.60
36548;DHT22;22551;52.206;4.856;2022-07-23T13:19:07;28.40;96.80
36548;DHT22;22551;52.206;4.856;2022-07-23T13:24:12;29.00;96.10
36548;DHT22;22551;52.206;4.856;2022-07-23T13:29:14;28.20;96.10
36548;DHT22;22551;52.206;4.856;2022-07-23T13:34:17;27.70;96.90
36548;DHT22;22551;52.206;4.856;2022-07-23T13:39:20;27.00;97.80
36548;DHT22;22551;52.206;4.856;2022-07-23T13:44:23;27.20;96.60
36548;DHT22;22551;52.206;4.856;2022-07-23T13:49:25;27.20;96.70
36548;DHT22;22551;52.206;4.856;2022-07-23T13:54:31;26.40;98.10
36548;DHT22;22551;52.206;4.856;2022-07-23T13:59:33;27.10;97.20
36548;DHT22;22551;52.206;4.856;2022-07-23T14:04:35;27.80;96.90
36548;DHT22;22551;52.206;4.856;2022-07-23T14:09:41;28.00;96.90
36548;DHT22;22551;52.206;4.856;2022-07-23T14:14:43;27.30;96.60
36548;DHT22;22551;52.206;4.856;2022-07-23T14:19:46;27.90;96.30
36548;DHT22;22551;52.206;4.856;2022-07-23T14:24:49;27.80;95.90
36548;DHT22;22551;52.206;4.856;2022-07-23T14:29:51;26.80;97.20
36548;DHT22;22551;52.206;4.856;2022-07-23T14:34:55;26.90;97.30
36548;DHT22;22551;52.206;4.856;2022-07-23T14:39:58;27.50;97.30
36548;DHT22;22551;52.206;4.856;2022-07-23T14:45:01;27.20;96.50
36548;DHT22;22551;52.206;4.856;2022-07-23T14:50:06;26.90;97.30
36548;DHT22;22551;52.206;4.856;2022-07-23T14:55:10;27.20;97.00
36548;DHT22;22551;52.206;4.856;2022-07-23T15:00:13;27.00;97.20
36548;DHT22;22551;52.206;4.856;2022-07-23T15:05:15;26.50;97.10
36548;DHT22;22551;52.206;4.856;2022-07-23T15:10:19;26.60;97.80
36548;DHT22;22551;52.206;4.856;2022-07-23T15:20:44;28.00;96.90
36548;DHT22;22551;52.206;4.856;2022-07-23T15:25:48;26.90;96.70
36548;DHT22;22551;52.206;4.856;2022-07-23T15:30:51;26.50;97.50
36548;DHT22;22551;52.206;4.856;2022-07-23T15:35:54;26.70;97.30
36548;DHT22;22551;52.206;4.856;2022-07-23T15:40:59;26.70;97.30
36548;DHT22;22551;52.206;4.856;2022-07-23T15:46:01;27.10;97.30
36548;DHT22;22551;52.206;4.856;2022-07-23T15:51:06;27.60;97.20
36548;DHT22;22551;52.206;4.856;2022-07-23T15:56:10;27.30;96.40
36548;DHT22;22551;52.206;4.856;2022-07-23T16:01:13;27.30;97.40
36548;DHT22;22551;52.206;4.856;2022-07-23T16:06:15;27.30;98.20
36548;DHT22;22551;52.206;4.856;2022-07-23T16:11:18;26.10;99.60
36548;DHT22;22551;52.206;4.856;2022-07-23T16:16:21;26.40;99.80
36548;DHT22;22551;52.206;4.856;2022-07-23T16:21:25;25.90;99.70
36548;DHT22;22551;52.206;4.856;2022-07-23T16:26:28;26.10;99.60
36548;DHT22;22551;52.206;4.856;2022-07-23T16:31:30;26.10;99.70
36548;DHT22;22551;52.206;4.856;2022-07-23T16:36:33;26.20;99.30
36548;DHT22;22551;52.206;4.856;2022-07-23T16:41:36;26.20;99.60
36548;DHT22;22551;52.206;4.856;2022-07-23T16:46:39;26.20;99.80
36548;DHT22;22551;52.206;4.856;2022-07-23T16:51:41;25.50;99.90
36548;DHT22;22551;52.206;4.856;2022-07-23T16:56:45;25.70;99.90
36548;DHT22;22551;52.206;4.856;2022-07-23T17:01:47;25.80;99.90
36548;DHT22;22551;52.206;4.856;2022-07-23T17:06:49;25.60;99.90
36548;DHT22;22551;52.206;4.856;2022-07-23T17:11:53;25.60;99.90
36548;DHT22;22551;52.206;4.856;2022-07-23T17:16:55;25.50;99.90
36548;DHT22;22551;52.206;4.856;2022-07-23T17:21:58;25.70;99.90
36548;DHT22;22551;52.206;4.856;2022-07-23T17:27:01;25.90;99.90
36548;DHT22;22551;52.206;4.856;2022-07-23T17:32:04;25.50;99.90
36548;DHT22;22551;52.206;4.856;2022-07-23T17:37:06;25.20;99.90
36548;DHT22;22551;52.206;4.856;2022-07-23T17:42:10;25.40;99.90
36548;DHT22;22551;52.206;4.856;2022-07-23T17:47:12;24.70;99.90
36548;DHT22;22551;52.206;4.856;2022-07-23T17:52:16;24.60;99.90
36548;DHT22;22551;52.206;4.856;2022-07-23T17:57:19;24.40;99.90
36548;DHT22;22551;52.206;4.856;2022-07-23T18:02:23;24.40;99.90
36548;DHT22;22551;52.206;4.856;2022-07-23T18:07:25;24.50;99.90
36548;DHT22;22551;52.206;4.856;2022-07-23T18:12:28;24.10;99.90
36548;DHT22;22551;52.206;4.856;2022-07-23T18:17:31;24.00;99.90
36548;DHT22;22551;52.206;4.856;2022-07-23T18:22:34;23.90;99.90
36548;DHT22;22551;52.206;4.856;2022-07-23T18:27:38;24.00;99.90
36548;DHT22;22551;52.206;4.856;2022-07-23T18:32:40;24.00;99.90
36548;DHT22;22551;52.206;4.856;2022-07-23T18:37:42;23.90;99.90
36548;DHT22;22551;52.206;4.856;2022-07-23T18:42:46;23.90;99.90
36548;DHT22;22551;52.206;4.856;2022-07-23T18:47:48;23.80;99.90
36548;DHT22;22551;52.206;4.856;2022-07-23T18:52:50;23.60;99.90
36548;DHT22;22551;52.206;4.856;2022-07-23T18:57:55;23.50;99.90
36548;DHT22;22551;52.206;4.856;2022-07-23T19:03:02;23.10;99.90
36548;DHT22;22551;52.206;4.856;2022-07-23T19:08:05;23.00;99.90
36548;DHT22;22551;52.206;4.856;2022-07-23T19:13:10;23.00;99.90
36548;DHT22;22551;52.206;4.856;2022-07-23T19:18:12;22.90;99.90
36548;DHT22;22551;52.206;4.856;2022-07-23T19:23:16;22.80;99.90
36548;DHT22;22551;52.206;4.856;2022-07-23T19:28:19;22.70;99.90
36548;DHT22;22551;52.206;4.856;2022-07-23T19:33:22;22.70;99.90
36548;DHT22;22551;52.206;4.856;2022-07-23T19:38:24;22.50;99.90
36548;DHT22;22551;52.206;4.856;2022-07-23T19:43:28;22.40;99.90
36548;DHT22;22551;52.206;4.856;2022-07-23T19:48:30;22.30;99.90
36548;DHT22;22551;52.206;4.856;2022-07-23T19:53:33;22.10;99.90
36548;DHT22;22551;52.206;4.856;2022-07-23T19:58:37;22.00;99.90
36548;DHT22;22551;52.206;4.856;2022-07-23T20:03:39;21.90;99.90
36548;DHT22;22551;52.206;4.856;2022-07-23T20:08:41;21.70;99.90
36548;DHT22;22551;52.206;4.856;2022-07-23T20:13:45;21.70;99.90
36548;DHT22;22551;52.206;4.856;2022-07-23T20:18:47;21.50;99.90
36548;DHT22;22551;52.206;4.856;2022-07-23T20:23:49;21.50;99.90
36548;DHT22;22551;52.206;4.856;2022-07-23T20:28:53;21.40;99.90
36548;DHT22;22551;52.206;4.856;2022-07-23T20:33:55;21.30;99.90
36548;DHT22;22551;52.206;4.856;2022-07-23T20:38:57;21.20;99.90
36548;DHT22;22551;52.206;4.856;2022-07-23T20:44:00;21.10;99.90
36548;DHT22;22551;52.206;4.856;2022-07-23T20:49:02;21.10;99.90
36548;DHT22;22551;52.206;4.856;2022-07-23T20:54:05;21.00;99.90
36548;DHT22;22551;52.206;4.856;2022-07-23T20:59:10;20.90;99.90
36548;DHT22;22551;52.206;4.856;2022-07-23T21:04:13;20.80;99.90
36548;DHT22;22551;52.206;4.856;2022-07-23T21:09:15;20.70;99.90
36548;DHT22;22551;52.206;4.856;2022-07-23T21:14:18;20.60;99.90
36548;DHT22;22551;52.206;4.856;2022-07-23T21:19:21;20.50;99.90
36548;DHT22;22551;52.206;4.856;2022-07-23T21:24:23;20.40;99.90
36548;DHT22;22551;52.206;4.856;2022-07-23T21:29:27;20.30;99.90
36548;DHT22;22551;52.206;4.856;2022-07-23T21:34:29;20.20;99.90
36548;DHT22;22551;52.206;4.856;2022-07-23T21:39:31;20.10;99.90
36548;DHT22;22551;52.206;4.856;2022-07-23T21:44:34;20.10;99.90
36548;DHT22;22551;52.206;4.856;2022-07-23T21:49:37;20.00;99.90
36548;DHT22;22551;52.206;4.856;2022-07-23T21:54:39;20.00;99.90
36548;DHT22;22551;52.206;4.856;2022-07-23T21:59:42;19.90;99.90
36548;DHT22;22551;52.206;4.856;2022-07-23T22:04:49;19.80;99.90
36548;DHT22;22551;52.206;4.856;2022-07-23T22:09:51;19.80;99.90
36548;DHT22;22551;52.206;4.856;2022-07-23T22:14:55;19.70;99.90
36548;DHT22;22551;52.206;4.856;2022-07-23T22:19:57;19.60;99.90
36548;DHT22;22551;52.206;4.856;2022-07-23T22:25:00;19.50;99.90
36548;DHT22;22551;52.206;4.856;2022-07-23T22:30:05;19.50;99.90
36548;DHT22;22551;52.206;4.856;2022-07-23T22:35:09;19.40;99.90
36548;DHT22;22551;52.206;4.856;2022-07-23T22:40:13;19.30;99.90
36548;DHT22;22551;52.206;4.856;2022-07-23T22:45:18;19.30;99.90
36548;DHT22;22551;52.206;4.856;2022-07-23T22:50:20;19.20;99.90
36548;DHT22;22551;52.206;4.856;2022-07-23T22:55:22;19.10;99.90
36548;DHT22;22551;52.206;4.856;2022-07-23T23:00:26;19.00;99.90
36548;DHT22;22551;52.206;4.856;2022-07-23T23:05:28;19.10;99.90
36548;DHT22;22551;52.206;4.856;2022-07-23T23:10:30;19.00;99.90
36548;DHT22;22551;52.206;4.856;2022-07-23T23:15:34;18.90;99.90
36548;DHT22;22551;52.206;4.856;2022-07-23T23:20:37;18.90;99.90
36548;DHT22;22551;52.206;4.856;2022-07-23T23:25:39;18.80;99.90
36548;DHT22;22551;52.206;4.856;2022-07-23T23:30:42;18.80;99.90
36548;DHT22;22551;52.206;4.856;2022-07-23T23:35:46;18.80;99.90
36548;DHT22;22551;52.206;4.856;2022-07-23T23:40:48;18.80;99.90
36548;DHT22;22551;52.206;4.856;2022-07-23T23:45:51;18.80;99.90
36548;DHT22;22551;52.206;4.856;2022-07-23T23:50:53;18.80;99.90
36548;DHT22;22551;52.206;4.856;2022-07-23T23:55:55;18.60;99.90
